createdAt,value
2024-01-24T00:00:23.175Z,101088.22
2024-01-24T00:02:50.400Z,101011.88
2024-01-24T00:05:17.608Z,101024.88
2024-01-24T00:07:44.619Z,101019.72
2024-01-24T00:10:12.351Z,101007.63
2024-01-24T00:12:39.136Z,101012.78
2024-01-24T00:15:06.388Z,100974.81
2024-01-24T00:17:33.095Z,101003.28
2024-01-24T00:19:59.766Z,101000.72
2024-01-24T00:22:27.295Z,101005.06
2024-01-24T00:24:54.002Z,101017.22
2024-01-24T00:27:20.704Z,101047.56
2024-01-24T00:29:47.616Z,101048.44
2024-01-24T00:32:14.279Z,101043.25
2024-01-24T00:34:41.193Z,101005.13
2024-01-24T00:37:08.084Z,100998.19
2024-01-24T00:39:34.910Z,101013.78
2024-01-24T00:42:01.816Z,101016.41
2024-01-24T00:44:28.876Z,100937.00
2024-01-24T00:46:55.478Z,101019.88
2024-01-24T00:49:23.821Z,101020.81
2024-01-24T00:51:50.667Z,101049.38
2024-01-24T00:54:17.416Z,101025.13
2024-01-24T00:56:44.166Z,101042.47
2024-01-24T00:59:10.828Z,101031.22
2024-01-24T01:01:38.041Z,101032.97
2024-01-24T01:04:05.437Z,101046.81
2024-01-24T01:06:32.394Z,101046.88
2024-01-24T01:09:01.302Z,101033.88
2024-01-24T01:11:27.974Z,101050.34
2024-01-24T01:13:54.628Z,101046.88
2024-01-24T01:16:21.251Z,101075.50
2024-01-24T01:18:47.944Z,101070.31
2024-01-24T01:21:14.666Z,101061.66
2024-01-24T01:23:41.502Z,101062.50
2024-01-24T01:26:08.148Z,101077.25
2024-01-24T01:28:35.577Z,101072.91
2024-01-24T01:31:02.278Z,101072.03
2024-01-24T01:33:29.062Z,101053.91
2024-01-24T01:36:08.390Z,101067.75
2024-01-24T01:38:41.510Z,101075.56
2024-01-24T01:41:08.120Z,101092.03
2024-01-24T01:43:34.770Z,101060.84
2024-01-24T01:46:11.601Z,101074.75
2024-01-24T01:48:39.404Z,101107.66
2024-01-24T01:51:07.447Z,101107.66
2024-01-24T01:53:39.541Z,101102.44
2024-01-24T01:56:13.398Z,101089.53
2024-01-24T01:58:41.570Z,101111.13
2024-01-24T02:01:08.858Z,101178.72
2024-01-24T02:03:42.725Z,101166.59
2024-01-24T02:06:09.588Z,101145.81
2024-01-24T02:08:37.327Z,101185.66
2024-01-24T02:11:05.284Z,101192.59
2024-01-24T02:13:33.051Z,101230.75
2024-01-24T02:16:00.342Z,101216.00
2024-01-24T02:18:27.134Z,101212.53
2024-01-24T02:20:55.034Z,101231.63
2024-01-24T02:23:26.766Z,101227.28
2024-01-24T02:25:54.206Z,101229.03
2024-01-24T02:28:21.224Z,101239.44
2024-01-24T02:30:47.928Z,101248.09
2024-01-24T02:33:14.709Z,101228.19
2024-01-24T02:35:41.412Z,101225.59
2024-01-24T02:38:08.074Z,101236.84
2024-01-24T02:40:34.827Z,101248.13
2024-01-24T02:43:01.545Z,101264.56
2024-01-24T02:45:28.276Z,101248.97
2024-01-24T02:47:54.963Z,101254.16
2024-01-24T02:50:21.693Z,101271.50
2024-01-24T02:52:48.561Z,101261.97
2024-01-24T02:55:18.398Z,101274.97
2024-01-24T02:57:45.435Z,101269.78
2024-01-24T03:00:16.958Z,101293.16
2024-01-24T03:02:44.217Z,101290.56
2024-01-24T03:05:11.144Z,101291.44
2024-01-24T03:07:38.997Z,101284.50
2024-01-24T03:10:06.423Z,101288.81
2024-01-24T03:12:33.937Z,101297.47
2024-01-24T03:15:01.496Z,101301.81
2024-01-24T03:17:28.187Z,101298.34
2024-01-24T03:19:54.970Z,101311.34
2024-01-24T03:22:21.953Z,101305.28
2024-01-24T03:24:48.630Z,101338.19
2024-01-24T03:27:15.473Z,101335.59
2024-01-24T03:29:43.652Z,101339.94
2024-01-24T03:32:10.913Z,101361.59
2024-01-24T03:34:38.076Z,101362.38
2024-01-24T03:37:05.098Z,101358.06
2024-01-24T03:39:31.734Z,101364.97
2024-01-24T03:41:58.458Z,101376.25
2024-01-24T03:44:25.095Z,101390.09
2024-01-24T03:46:51.805Z,101409.13
2024-01-24T03:49:21.826Z,101423.00
2024-01-24T03:51:49.143Z,101418.66
2024-01-24T03:54:16.455Z,101426.47
2024-01-24T03:56:43.165Z,101412.59
2024-01-24T03:59:09.797Z,101422.13
2024-01-24T04:01:36.692Z,101422.13
2024-01-24T04:04:03.896Z,101426.44
2024-01-24T04:06:31.564Z,101420.41
2024-01-24T04:08:58.223Z,101428.19
2024-01-24T04:11:25.238Z,101440.31
2024-01-24T04:13:57.616Z,101417.78
2024-01-24T04:16:24.525Z,101435.09
2024-01-24T04:18:53.916Z,101444.63
2024-01-24T04:21:20.743Z,101416.03
2024-01-24T04:23:47.418Z,101441.13
2024-01-24T04:26:14.108Z,101443.72
2024-01-24T04:28:40.801Z,101454.13
2024-01-24T04:31:07.473Z,101458.44
2024-01-24T04:33:34.227Z,101476.63
2024-01-24T04:36:01.345Z,101488.72
2024-01-24T04:38:28.133Z,101481.78
2024-01-24T04:40:54.812Z,101502.53
2024-01-24T04:43:21.444Z,101480.03
2024-01-24T04:45:48.158Z,101481.78
2024-01-24T04:48:14.898Z,101493.88
2024-01-24T04:50:41.930Z,101509.47
2024-01-24T04:53:09.074Z,101504.28
2024-01-24T04:55:35.786Z,101521.59
2024-01-24T04:58:03.544Z,101519.84
2024-01-24T05:00:30.414Z,101518.97
2024-01-24T05:02:57.170Z,101528.50
2024-01-24T05:05:23.846Z,101524.16
2024-01-24T05:07:50.463Z,101525.00
2024-01-24T05:10:17.366Z,101536.28
2024-01-24T05:12:44.086Z,101552.72
2024-01-24T05:15:12.265Z,101540.59
2024-01-24T05:17:40.522Z,101551.84
2024-01-24T05:20:18.488Z,101549.22
2024-01-24T05:22:45.299Z,101537.06
2024-01-24T05:25:11.997Z,101548.34
2024-01-24T05:27:38.700Z,101568.25
2024-01-24T05:30:15.837Z,101563.06
2024-01-24T05:32:47.328Z,101580.41
2024-01-24T05:35:13.953Z,101581.25
2024-01-24T05:37:40.803Z,101599.41
2024-01-24T05:40:09.150Z,101615.84
2024-01-24T05:42:35.934Z,101644.44
2024-01-24T05:45:03.042Z,101647.00
2024-01-24T05:47:29.816Z,101653.03
2024-01-24T05:49:56.577Z,101633.97
2024-01-24T05:52:23.212Z,101618.44
2024-01-24T05:54:49.871Z,101617.53
2024-01-24T05:57:16.643Z,101620.97
2024-01-24T05:59:43.359Z,101619.19
2024-01-24T06:02:11.243Z,101630.50
2024-01-24T06:04:38.040Z,101635.66
2024-01-24T06:07:05.820Z,101655.53
2024-01-24T06:09:32.670Z,101658.13
2024-01-24T06:12:00.345Z,101663.31
2024-01-24T06:14:26.965Z,101671.94
2024-01-24T06:16:53.602Z,101671.03
2024-01-24T06:19:20.366Z,101675.41
2024-01-24T06:21:47.115Z,101684.84
2024-01-24T06:24:13.907Z,101665.78
2024-01-24T06:26:40.683Z,101680.53
2024-01-24T06:29:08.129Z,101688.25
2024-01-24T06:31:34.814Z,101691.72
2024-01-24T06:34:01.832Z,101707.28
2024-01-24T06:36:30.098Z,101737.47
2024-01-24T06:38:56.771Z,101721.06
2024-01-24T06:41:23.446Z,101709.81
2024-01-24T06:43:50.135Z,101737.41
2024-01-24T06:46:18.733Z,101723.59
2024-01-24T06:48:45.586Z,101714.06
2024-01-24T06:51:14.322Z,101738.31
2024-01-24T06:53:41.164Z,101744.34
2024-01-24T06:56:09.661Z,101754.66
2024-01-24T06:58:38.744Z,101758.09
2024-01-24T07:01:05.707Z,101775.41
2024-01-24T07:03:32.517Z,101754.50
2024-01-24T07:05:59.597Z,101767.56
2024-01-24T07:08:26.247Z,101766.56
2024-01-24T07:10:52.911Z,101780.50
2024-01-24T07:13:20.371Z,101771.81
2024-01-24T07:15:47.063Z,101781.34
2024-01-24T07:18:13.822Z,101777.00
2024-01-24T07:20:40.546Z,101783.84
2024-01-24T07:23:08.295Z,101798.53
2024-01-24T07:25:34.939Z,101797.66
2024-01-24T07:28:01.723Z,101821.84
2024-01-24T07:30:29.135Z,101819.22
2024-01-24T07:32:55.990Z,101803.59
2024-01-24T07:35:22.779Z,101823.50
2024-01-24T07:37:49.388Z,101827.84
2024-01-24T07:40:16.517Z,101840.81
2024-01-24T07:42:43.900Z,101836.44
2024-01-24T07:45:10.792Z,101845.94
2024-01-24T07:47:37.859Z,101842.38
2024-01-24T07:50:06.240Z,101875.31
2024-01-24T07:52:40.622Z,101876.16
2024-01-24T07:55:09.786Z,101871.84
2024-01-24T07:57:37.252Z,101871.81
2024-01-24T08:00:07.437Z,101876.97
2024-01-24T08:02:34.885Z,101879.56
2024-01-24T08:05:01.825Z,101890.81
2024-01-24T08:07:29.256Z,101905.50
2024-01-24T08:09:56.058Z,101899.44
2024-01-24T08:12:24.703Z,101906.34
2024-01-24T08:14:51.448Z,101921.94
2024-01-24T08:17:18.255Z,101935.78
2024-01-24T08:19:45.961Z,101934.88
2024-01-24T08:22:12.768Z,101934.03
2024-01-24T08:24:39.412Z,101950.41
2024-01-24T08:27:06.116Z,101971.16
2024-01-24T08:29:37.376Z,101959.06
2024-01-24T08:32:06.547Z,101958.16
2024-01-24T08:34:36.512Z,101946.91
2024-01-24T08:37:03.630Z,101939.16
2024-01-24T08:39:30.324Z,101959.91
2024-01-24T08:41:57.645Z,101983.25
2024-01-24T08:44:24.310Z,101986.69
2024-01-24T08:46:52.109Z,101999.66
2024-01-24T08:49:19.200Z,101999.59
2024-01-24T08:51:46.146Z,102008.31
2024-01-24T08:54:12.931Z,102018.63
2024-01-24T08:56:40.276Z,102025.50
2024-01-24T08:59:07.303Z,102024.69
2024-01-24T09:01:34.102Z,102042.03
2024-01-24T09:04:01.063Z,102058.47
2024-01-24T09:06:27.791Z,102056.84
2024-01-24T09:08:54.814Z,102042.13
2024-01-24T09:11:24.342Z,102069.09
2024-01-24T09:13:52.838Z,102070.84
2024-01-24T09:16:21.171Z,102061.47
2024-01-24T09:18:48.123Z,102071.94
2024-01-24T09:21:14.880Z,102097.94
2024-01-24T09:23:41.517Z,102077.28
2024-01-24T09:26:08.483Z,102098.16
2024-01-24T09:28:35.342Z,102110.34
2024-01-24T09:31:02.147Z,102079.22
2024-01-24T09:33:28.989Z,102087.22
2024-01-24T09:35:56.413Z,102088.25
2024-01-24T09:38:23.234Z,102079.75
2024-01-24T09:40:50.612Z,102082.44
2024-01-24T09:43:17.940Z,102085.16
2024-01-24T09:45:45.709Z,102091.22
2024-01-24T09:48:13.034Z,102100.06
2024-01-24T09:50:41.469Z,102117.47
2024-01-24T09:53:10.527Z,102099.19
2024-01-24T09:55:38.046Z,102128.13
2024-01-24T09:58:05.858Z,102134.25
2024-01-24T10:00:33.544Z,102150.88
2024-01-24T10:03:00.467Z,102170.94
2024-01-24T10:05:27.781Z,102176.22
2024-01-24T10:07:55.937Z,102192.78
2024-01-24T10:10:22.947Z,102194.66
2024-01-24T10:12:49.793Z,102201.75
2024-01-24T10:15:17.065Z,102205.34
2024-01-24T10:17:44.750Z,102217.66
2024-01-24T10:20:15.705Z,102220.41
2024-01-24T10:22:46.837Z,102214.47
2024-01-24T10:25:13.859Z,102224.03
2024-01-24T10:27:41.412Z,102226.78
2024-01-24T10:30:11.409Z,102219.06
2024-01-24T10:32:38.537Z,102219.16
2024-01-24T10:35:06.395Z,102226.19
2024-01-24T10:37:34.007Z,102223.63
2024-01-24T10:40:12.889Z,102218.38
2024-01-24T10:42:42.829Z,102227.94
2024-01-24T10:45:10.612Z,102233.97
2024-01-24T10:47:37.664Z,102226.16
2024-01-24T10:50:06.396Z,102235.66
2024-01-24T10:52:34.466Z,102242.63
2024-01-24T10:55:07.608Z,102236.53
2024-01-24T10:57:35.940Z,102220.88
2024-01-24T11:00:12.013Z,102248.69
2024-01-24T11:02:42.287Z,102240.00
2024-01-24T11:05:14.173Z,102226.94
2024-01-24T11:07:55.092Z,102223.50
2024-01-24T11:10:43.839Z,102213.97
2024-01-24T11:13:12.643Z,102216.63
2024-01-24T11:15:41.563Z,102234.00
2024-01-24T11:18:24.955Z,102234.00
2024-01-24T11:21:01.892Z,102228.69
2024-01-24T11:23:35.891Z,102265.22
2024-01-24T11:26:03.266Z,102258.22
2024-01-24T11:28:29.958Z,102268.56
2024-01-24T11:30:57.253Z,102266.81
2024-01-24T11:33:25.019Z,102281.47
2024-01-24T11:35:52.752Z,102283.19
2024-01-24T11:38:30.060Z,102304.00
2024-01-24T11:41:03.847Z,102304.69
2024-01-24T11:43:36.495Z,102311.66
2024-01-24T11:46:06.996Z,102318.56
2024-01-24T11:48:36.766Z,102342.00
2024-01-24T11:51:09.283Z,102313.28
2024-01-24T11:53:36.390Z,102328.09
2024-01-24T11:56:15.857Z,102299.34
2024-01-24T11:58:42.761Z,102328.97
2024-01-24T12:01:14.488Z,102330.75
2024-01-24T12:03:49.846Z,102344.72
2024-01-24T12:06:18.247Z,102335.19
2024-01-24T12:08:50.375Z,102341.22
2024-01-24T12:11:18.437Z,102345.59
2024-01-24T12:13:45.966Z,102348.13
2024-01-24T12:16:12.819Z,102361.16
2024-01-24T12:18:39.756Z,102371.56
2024-01-24T12:21:09.692Z,102372.38
2024-01-24T12:23:36.654Z,102368.94
2024-01-24T12:26:04.390Z,102389.72
2024-01-24T12:28:31.606Z,102387.09
2024-01-24T12:30:59.042Z,102406.19
2024-01-24T12:33:26.289Z,102401.81
2024-01-24T12:35:53.117Z,102400.97
2024-01-24T12:38:19.891Z,102410.53
2024-01-24T12:40:55.546Z,102406.19
2024-01-24T12:43:24.132Z,102403.56
2024-01-24T12:45:52.619Z,102410.53
2024-01-24T12:48:22.919Z,102408.84
2024-01-24T12:50:51.130Z,102404.50
2024-01-24T12:53:18.352Z,102405.41
2024-01-24T12:55:45.056Z,102391.59
2024-01-24T12:58:12.009Z,102411.66
2024-01-24T13:00:39.090Z,102416.09
2024-01-24T13:03:06.622Z,102415.31
2024-01-24T13:05:42.200Z,102409.19
2024-01-24T13:08:14.047Z,102452.81
2024-01-24T13:10:45.202Z,102457.16
2024-01-24T13:13:12.734Z,102444.13
2024-01-24T13:15:40.767Z,102439.81
2024-01-24T13:18:09.401Z,102454.53
2024-01-24T13:20:36.662Z,102451.03
2024-01-24T13:23:03.368Z,102456.19
2024-01-24T13:25:30.396Z,102459.66
2024-01-24T13:27:57.949Z,102457.91
2024-01-24T13:30:24.979Z,102464.91
2024-01-24T13:32:52.511Z,102453.59
2024-01-24T13:35:20.176Z,102454.47
2024-01-24T13:37:48.367Z,102446.59
2024-01-24T13:40:15.537Z,102470.03
2024-01-24T13:42:43.537Z,102467.38
2024-01-24T13:45:11.325Z,102464.75
2024-01-24T13:47:41.868Z,102474.22
2024-01-24T13:50:10.744Z,102482.03
2024-01-24T13:52:37.794Z,102468.09
2024-01-24T13:55:07.702Z,102462.88
2024-01-24T13:57:35.752Z,102477.66
2024-01-24T14:00:04.751Z,102473.31
2024-01-24T14:02:31.736Z,102473.31
2024-01-24T14:04:58.831Z,102473.28
2024-01-24T14:07:25.661Z,102461.84
2024-01-24T14:09:53.381Z,102465.38
2024-01-24T14:12:20.031Z,102460.91
2024-01-24T14:14:47.034Z,102471.31
2024-01-24T14:17:13.773Z,102459.91
2024-01-24T14:19:40.486Z,102462.44
2024-01-24T14:22:07.884Z,102493.59
2024-01-24T14:24:34.718Z,102475.28
2024-01-24T14:27:01.438Z,102495.13
2024-01-24T14:29:28.076Z,102494.22
2024-01-24T14:31:54.751Z,102495.00
2024-01-24T14:34:21.569Z,102494.00
2024-01-24T14:36:52.420Z,102475.72
2024-01-24T14:39:22.963Z,102479.13
2024-01-24T14:41:49.880Z,102493.84
2024-01-24T14:44:17.372Z,102466.72
2024-01-24T14:46:44.102Z,102491.91
2024-01-24T14:49:11.388Z,102517.91
2024-01-24T14:51:38.182Z,102508.28
2024-01-24T14:54:05.092Z,102522.16
2024-01-24T14:56:31.739Z,102545.56
2024-01-24T14:58:58.466Z,102525.53
2024-01-24T15:01:25.702Z,102536.81
2024-01-24T15:03:53.294Z,102541.13
2024-01-24T15:06:20.354Z,102548.16
2024-01-24T15:08:47.872Z,102546.44
2024-01-24T15:11:14.892Z,102560.25
2024-01-24T15:13:41.664Z,102550.69
2024-01-24T15:16:08.506Z,102524.53
2024-01-24T15:18:35.608Z,102542.84
2024-01-24T15:21:08.909Z,102550.69
2024-01-24T15:23:39.681Z,102548.06
2024-01-24T15:26:06.830Z,102569.75
2024-01-24T15:28:35.725Z,102546.31
2024-01-24T15:31:03.728Z,102553.19
2024-01-24T15:33:33.242Z,102546.31
2024-01-24T15:36:00.270Z,102541.09
2024-01-24T15:38:26.979Z,102535.81
2024-01-24T15:40:54.447Z,102539.34
2024-01-24T15:43:21.529Z,102553.19
2024-01-24T15:45:48.462Z,102537.53
2024-01-24T15:48:16.272Z,102527.06
2024-01-24T15:50:44.144Z,102533.13
2024-01-24T15:53:11.881Z,102539.19
2024-01-24T15:55:38.770Z,102492.31
2024-01-24T15:58:05.540Z,102511.25
2024-01-24T16:00:32.585Z,102533.81
2024-01-24T16:03:00.945Z,102526.84
2024-01-24T16:05:35.398Z,102517.25
2024-01-24T16:08:03.875Z,102521.50
2024-01-24T16:10:30.849Z,102527.56
2024-01-24T16:12:57.565Z,102533.56
2024-01-24T16:15:24.286Z,102540.47
2024-01-24T16:17:51.200Z,102543.91
2024-01-24T16:20:18.271Z,102534.28
2024-01-24T16:22:51.085Z,102551.59
2024-01-24T16:25:25.884Z,102557.63
2024-01-24T16:27:55.048Z,102553.19
2024-01-24T16:30:26.389Z,102545.31
2024-01-24T16:32:57.102Z,102552.16
2024-01-24T16:35:24.376Z,102555.59
2024-01-24T16:37:51.408Z,102558.97
2024-01-24T16:40:18.236Z,102564.97
2024-01-24T16:42:44.908Z,102577.00
2024-01-24T16:45:12.517Z,102587.34
2024-01-24T16:47:40.178Z,102590.66
2024-01-24T16:50:07.801Z,102595.03
2024-01-24T16:52:34.656Z,102599.22
2024-01-24T16:55:01.796Z,102605.28
2024-01-24T16:57:28.782Z,102608.63
2024-01-24T16:59:58.245Z,102603.44
2024-01-24T17:02:34.208Z,102609.47
2024-01-24T17:05:05.572Z,102606.72
2024-01-24T17:07:32.387Z,102605.88
2024-01-24T17:10:01.248Z,102605.00
2024-01-24T17:12:29.051Z,102612.75
2024-01-24T17:14:56.024Z,102615.34
2024-01-24T17:17:22.807Z,102616.13
2024-01-24T17:19:49.537Z,102610.06
2024-01-24T17:22:16.619Z,102607.38
2024-01-24T17:24:43.342Z,102596.94
2024-01-24T17:27:12.697Z,102595.94
2024-01-24T17:29:40.327Z,102604.63
2024-01-24T17:32:07.265Z,102606.25
2024-01-24T17:34:34.337Z,102618.28
2024-01-24T17:37:01.085Z,102625.25
2024-01-24T17:39:28.290Z,102619.19
2024-01-24T17:41:55.267Z,102613.94
2024-01-24T17:44:22.297Z,102613.03
2024-01-24T17:46:49.005Z,102616.44
2024-01-24T17:49:16.734Z,102632.88
2024-01-24T17:51:44.390Z,102644.03
2024-01-24T17:54:11.246Z,102634.50
2024-01-24T17:56:38.394Z,102645.66
2024-01-24T17:59:05.111Z,102656.88
2024-01-24T18:01:32.598Z,102665.47
2024-01-24T18:03:59.588Z,102662.81
2024-01-24T18:06:26.976Z,102667.09
2024-01-24T18:08:54.345Z,102669.69
2024-01-24T18:11:20.996Z,102673.84
2024-01-24T18:13:48.261Z,102683.44
2024-01-24T18:16:15.486Z,102685.97
2024-01-24T18:18:42.390Z,102680.66
2024-01-24T18:21:11.049Z,102697.13
2024-01-24T18:23:38.268Z,102704.91
2024-01-24T18:26:05.026Z,102693.47
2024-01-24T18:28:31.716Z,102703.91
2024-01-24T18:30:58.443Z,102705.63
2024-01-24T18:33:25.576Z,102713.41
2024-01-24T18:35:52.650Z,102719.31
2024-01-24T18:38:19.512Z,102720.25
2024-01-24T18:40:46.211Z,102723.69
2024-01-24T18:43:13.140Z,102730.63
2024-01-24T18:45:39.958Z,102733.22
2024-01-24T18:48:07.402Z,102729.69
2024-01-24T18:50:34.241Z,102734.88
2024-01-24T18:53:01.040Z,102731.47
2024-01-24T18:55:28.119Z,102735.75
2024-01-24T18:57:55.309Z,102743.44
2024-01-24T19:00:23.480Z,102732.97
2024-01-24T19:02:50.872Z,102744.31
2024-01-24T19:05:23.798Z,102729.38
2024-01-24T19:07:57.781Z,102740.66
2024-01-24T19:10:24.735Z,102754.47
2024-01-24T19:12:51.673Z,102757.88
2024-01-24T19:15:20.836Z,102755.16
2024-01-24T19:17:49.090Z,102762.78
2024-01-24T19:20:18.764Z,102770.53
2024-01-24T19:22:45.778Z,102770.34
2024-01-24T19:25:12.612Z,102778.94
2024-01-24T19:27:39.393Z,102779.69
2024-01-24T19:30:07.420Z,102786.56
2024-01-24T19:32:34.160Z,102779.47
2024-01-24T19:35:03.978Z,102791.56
2024-01-24T19:37:31.655Z,102800.88
2024-01-24T19:39:58.343Z,102805.03
2024-01-24T19:42:25.210Z,102814.47
2024-01-24T19:44:52.543Z,102800.31
2024-01-24T19:47:29.009Z,102801.19
2024-01-24T19:49:56.948Z,102807.13
2024-01-24T19:52:24.093Z,102815.66
2024-01-24T19:54:51.083Z,102807.53
2024-01-24T19:57:18.229Z,102817.22
2024-01-24T19:59:44.924Z,102803.25
2024-01-24T20:02:13.397Z,102799.63
2024-01-24T20:04:40.081Z,102806.47
2024-01-24T20:07:07.472Z,102820.19
2024-01-24T20:09:34.302Z,102814.91
2024-01-24T20:12:00.955Z,102824.28
2024-01-24T20:14:27.653Z,102808.53
2024-01-24T20:16:54.780Z,102816.41
2024-01-24T20:19:21.617Z,102802.44
2024-01-24T20:21:48.389Z,102810.16
2024-01-24T20:24:15.761Z,102816.97
2024-01-24T20:26:42.418Z,102829.03
2024-01-24T20:29:09.037Z,102826.28
2024-01-24T20:31:35.775Z,102827.03
2024-01-24T20:34:03.223Z,102833.88
2024-01-24T20:36:30.210Z,102847.47
2024-01-24T20:38:57.586Z,102857.81
2024-01-24T20:41:24.984Z,102849.88
2024-01-24T20:43:52.599Z,102840.19
2024-01-24T20:46:19.506Z,102842.63
2024-01-24T20:48:46.416Z,102831.94
2024-01-24T20:51:13.328Z,102826.66
2024-01-24T20:53:39.964Z,102830.06
2024-01-24T20:56:07.100Z,102847.13
2024-01-24T20:58:34.575Z,102846.91
2024-01-24T21:01:02.390Z,102854.66
2024-01-24T21:03:29.814Z,102857.16
2024-01-24T21:05:57.042Z,102875.28
2024-01-24T21:08:24.719Z,102879.50
2024-01-24T21:10:55.974Z,102872.47
2024-01-24T21:13:29.427Z,102869.59
2024-01-24T21:15:56.517Z,102877.41
2024-01-24T21:18:23.504Z,102877.19
2024-01-24T21:20:50.882Z,102889.31
2024-01-24T21:23:17.959Z,102885.66
2024-01-24T21:25:44.649Z,102892.47
2024-01-24T21:28:11.742Z,102874.94
2024-01-24T21:30:38.419Z,102873.25
2024-01-24T21:33:05.415Z,102877.44
2024-01-24T21:35:32.160Z,102883.28
2024-01-24T21:37:58.815Z,102885.84
2024-01-24T21:40:25.704Z,102894.28
2024-01-24T21:42:52.595Z,102891.66
2024-01-24T21:45:19.394Z,102894.91
2024-01-24T21:47:46.605Z,102899.19
2024-01-24T21:50:13.818Z,102903.38
2024-01-24T21:52:40.572Z,102902.41
2024-01-24T21:55:07.934Z,102908.44
2024-01-24T21:57:34.878Z,102903.00
2024-01-24T22:00:01.909Z,102916.13
2024-01-24T22:02:31.689Z,102912.56
2024-01-24T22:04:58.319Z,102907.28
2024-01-24T22:07:25.079Z,102903.00
2024-01-24T22:09:53.423Z,102890.75
2024-01-24T22:12:20.131Z,102882.91
2024-01-24T22:14:46.763Z,102881.94
2024-01-24T22:17:13.437Z,102896.69
2024-01-24T22:19:40.213Z,102898.09
2024-01-24T22:22:07.022Z,102921.53
2024-01-24T22:24:33.902Z,102924.91
2024-01-24T22:27:00.668Z,102910.13
2024-01-24T22:29:27.616Z,102894.94
2024-01-24T22:31:54.528Z,102912.59
2024-01-24T22:34:21.881Z,102897.72
2024-01-24T22:36:49.008Z,102896.69
2024-01-24T22:39:16.351Z,102907.09
2024-01-24T22:41:43.202Z,102912.19
2024-01-24T22:44:10.990Z,102916.44
2024-01-24T22:46:43.603Z,102906.69
2024-01-24T22:49:11.460Z,102917.13
2024-01-24T22:51:39.260Z,102916.19
2024-01-24T22:54:07.092Z,102906.28
2024-01-24T22:56:33.763Z,102926.28
2024-01-24T22:59:00.442Z,102930.63
2024-01-24T23:01:28.819Z,102933.88
2024-01-24T23:03:55.678Z,102935.53
2024-01-24T23:06:22.809Z,102941.44
2024-01-24T23:08:49.518Z,102942.31
2024-01-24T23:11:16.160Z,102936.88
2024-01-24T23:13:42.835Z,102935.91
2024-01-24T23:16:09.684Z,102941.91
2024-01-24T23:18:36.806Z,102939.22
2024-01-24T23:21:03.677Z,102939.13
2024-01-24T23:23:30.379Z,102926.66
2024-01-24T23:25:57.038Z,102919.00
2024-01-24T23:28:23.885Z,102917.97
2024-01-24T23:30:51.392Z,102932.63
2024-01-24T23:33:18.578Z,102929.88
2024-01-24T23:35:45.344Z,102938.41
2024-01-24T23:38:12.075Z,102938.50
2024-01-24T23:40:38.771Z,102940.19
2024-01-24T23:43:05.674Z,102925.06
2024-01-24T23:45:32.588Z,102936.59
2024-01-24T23:47:59.511Z,102925.25
2024-01-24T23:50:26.730Z,102925.25
2024-01-24T23:52:58.263Z,102934.84
2024-01-24T23:55:26.424Z,102926.75
2024-01-24T23:57:54.835Z,102926.63
